createdAt,value
2023-02-18T00:01:11.901Z,20.23
2023-02-18T00:03:38.670Z,19.73
2023-02-18T00:06:15.482Z,19.38
2023-02-18T00:08:42.310Z,20.05
2023-02-18T00:11:09.145Z,21.38
2023-02-18T00:13:36.030Z,21.15
2023-02-18T00:16:03.363Z,20.73
2023-02-18T00:18:29.780Z,21.60
2023-02-18T00:20:56.122Z,20.17
2023-02-18T00:23:22.737Z,21.30
2023-02-18T00:25:49.084Z,19.05
2023-02-18T00:28:15.446Z,20.52
2023-02-18T00:30:42.328Z,20.95
2023-02-18T00:33:08.808Z,20.48
2023-02-18T00:35:35.355Z,20.65
2023-02-18T00:38:01.858Z,20.35
2023-02-18T00:40:28.333Z,20.77
2023-02-18T00:42:54.628Z,19.98
2023-02-18T00:45:20.964Z,20.67
2023-02-18T00:47:47.240Z,20.10
2023-02-18T00:50:13.556Z,19.27
2023-02-18T00:52:39.849Z,19.25
2023-02-18T00:55:06.372Z,20.15
2023-02-18T00:57:32.704Z,19.10
2023-02-18T00:59:58.990Z,18.20
2023-02-18T01:02:25.357Z,19.63
2023-02-18T01:04:51.772Z,18.40
2023-02-18T01:07:18.236Z,18.95
2023-02-18T01:09:44.596Z,18.73
2023-02-18T01:12:11.048Z,18.42
2023-02-18T01:14:37.512Z,18.83
2023-02-18T01:17:03.927Z,16.92
2023-02-18T01:19:35.826Z,16.73
2023-02-18T01:22:02.432Z,16.55
2023-02-18T01:24:28.767Z,16.73
2023-02-18T01:26:55.124Z,16.17
2023-02-18T01:29:21.516Z,15.52
2023-02-18T01:31:48.003Z,15.95
2023-02-18T01:34:15.202Z,16.15
2023-02-18T01:36:41.576Z,14.52
2023-02-18T01:39:07.956Z,14.80
2023-02-18T01:41:34.426Z,14.23
2023-02-18T01:44:16.234Z,14.63
2023-02-18T01:46:42.628Z,14.02
2023-02-18T01:49:10.579Z,14.45
2023-02-18T01:51:43.528Z,14.05
2023-02-18T01:54:42.448Z,13.52
2023-02-18T01:57:13.964Z,14.35
2023-02-18T01:59:42.864Z,14.80
2023-02-18T02:02:12.427Z,14.45
2023-02-18T02:04:38.878Z,16.48
2023-02-18T02:07:05.401Z,15.57
2023-02-18T02:09:32.408Z,16.98
2023-02-18T02:12:11.010Z,15.25
2023-02-18T02:14:43.191Z,17.13
2023-02-18T02:17:20.441Z,16.17
2023-02-18T02:20:05.854Z,18.58
2023-02-18T02:22:49.485Z,17.52
2023-02-18T02:25:15.805Z,18.00
2023-02-18T02:28:07.665Z,18.90
2023-02-18T02:30:36.781Z,18.58
2023-02-18T02:33:25.101Z,19.50
2023-02-18T02:35:51.437Z,17.60
2023-02-18T02:38:42.268Z,19.38
2023-02-18T02:41:13.758Z,19.17
2023-02-18T02:43:40.010Z,18.02
2023-02-18T02:46:21.932Z,19.92
2023-02-18T02:49:00.855Z,20.35
2023-02-18T02:51:29.762Z,20.15
2023-02-18T02:54:09.111Z,19.77
2023-02-18T02:56:35.857Z,19.48
2023-02-18T02:59:04.377Z,19.30
2023-02-18T03:01:41.866Z,18.67
2023-02-18T03:04:08.199Z,18.90
2023-02-18T03:06:35.251Z,18.60
2023-02-18T03:09:10.264Z,17.60
2023-02-18T03:11:56.897Z,18.05
2023-02-18T03:14:28.530Z,17.05
2023-02-18T03:16:57.615Z,17.70
2023-02-18T03:19:28.468Z,17.77
2023-02-18T03:24:25.224Z,15.90
2023-02-18T03:26:53.979Z,17.15
2023-02-18T03:29:21.256Z,15.18
2023-02-18T03:31:49.185Z,15.27
2023-02-18T03:34:16.947Z,12.05
2023-02-18T03:36:43.660Z,11.50
2023-02-18T03:39:19.673Z,11.13
2023-02-18T03:41:46.313Z,11.25
2023-02-18T03:44:13.018Z,9.63
2023-02-18T03:46:40.431Z,9.50
2023-02-18T03:49:06.793Z,9.93
2023-02-18T03:51:33.978Z,9.00
2023-02-18T03:54:00.468Z,8.70
2023-02-18T03:56:26.848Z,8.77
2023-02-18T03:58:53.144Z,6.75
2023-02-18T04:01:19.553Z,7.18
2023-02-18T04:03:45.915Z,7.60
2023-02-18T04:06:12.745Z,6.85
2023-02-18T04:08:39.072Z,6.70
2023-02-18T04:11:05.522Z,6.82
2023-02-18T04:13:31.905Z,6.45
2023-02-18T04:15:58.190Z,7.05
2023-02-18T04:18:24.661Z,5.78
2023-02-18T04:20:51.648Z,6.63
2023-02-18T04:23:17.977Z,6.68
2023-02-18T04:25:46.491Z,5.18
2023-02-18T04:28:13.973Z,5.70
2023-02-18T04:30:40.395Z,5.15
2023-02-18T04:33:06.865Z,4.35
2023-02-18T04:35:33.408Z,4.35
2023-02-18T04:37:59.777Z,4.15
2023-02-18T04:40:29.774Z,4.60
2023-02-18T04:42:57.573Z,4.30
2023-02-18T04:45:24.309Z,3.72
2023-02-18T04:47:50.639Z,3.80
2023-02-18T04:50:17.200Z,4.32
2023-02-18T04:52:43.542Z,3.88
2023-02-18T04:55:10.256Z,4.45
2023-02-18T04:57:36.656Z,4.10
2023-02-18T05:00:06.726Z,4.32
2023-02-18T05:02:33.460Z,4.25
2023-02-18T05:04:59.928Z,4.50
2023-02-18T05:07:26.896Z,5.63
2023-02-18T05:09:54.085Z,6.03
2023-02-18T05:12:20.594Z,6.15
2023-02-18T05:14:46.965Z,5.35
2023-02-18T05:17:13.499Z,5.43
2023-02-18T05:19:39.850Z,4.95
2023-02-18T05:22:06.131Z,5.15
2023-02-18T05:24:32.456Z,5.88
2023-02-18T05:26:58.806Z,5.50
2023-02-18T05:29:25.156Z,5.63
2023-02-18T05:31:52.070Z,5.63
2023-02-18T05:34:18.533Z,5.70
2023-02-18T05:36:44.814Z,6.15
2023-02-18T05:39:11.158Z,5.88
2023-02-18T05:41:37.526Z,6.22
2023-02-18T05:44:22.493Z,7.47
2023-02-18T05:46:48.838Z,7.65
2023-02-18T05:49:15.187Z,8.88
2023-02-18T05:51:41.486Z,9.35
2023-02-18T05:54:07.801Z,9.60
2023-02-18T05:56:34.264Z,7.78
2023-02-18T05:59:00.689Z,8.38
2023-02-18T06:01:27.125Z,7.82
2023-02-18T06:03:53.607Z,6.60
2023-02-18T06:06:19.885Z,7.85
2023-02-18T06:08:46.275Z,7.32
2023-02-18T06:11:12.613Z,7.38
2023-02-18T06:13:38.887Z,9.35
2023-02-18T06:16:05.476Z,8.85
2023-02-18T06:18:31.966Z,8.70
2023-02-18T06:20:58.296Z,8.80
2023-02-18T06:23:27.300Z,10.00
2023-02-18T06:25:53.661Z,10.85
2023-02-18T06:28:20.012Z,9.98
2023-02-18T06:30:47.336Z,9.95
2023-02-18T06:33:13.753Z,9.85
2023-02-18T06:35:40.146Z,9.65
2023-02-18T06:38:06.608Z,9.60
2023-02-18T06:40:33.052Z,8.75
2023-02-18T06:42:59.378Z,8.60
2023-02-18T06:45:27.851Z,7.40
2023-02-18T06:47:54.306Z,7.13
2023-02-18T06:50:20.606Z,7.43
2023-02-18T06:52:46.961Z,8.18
2023-02-18T06:55:13.296Z,7.50
2023-02-18T06:57:39.667Z,7.72
2023-02-18T07:00:06.317Z,8.05
2023-02-18T07:02:32.579Z,8.02
2023-02-18T07:04:58.901Z,9.30
2023-02-18T07:07:26.646Z,10.02
2023-02-18T07:09:52.984Z,11.52
2023-02-18T07:12:19.308Z,10.40
2023-02-18T07:14:46.025Z,10.30
2023-02-18T07:17:12.324Z,10.35
2023-02-18T07:19:38.676Z,10.50
2023-02-18T07:22:04.972Z,11.48
2023-02-18T07:24:31.266Z,10.77
2023-02-18T07:26:57.612Z,10.65
2023-02-18T07:29:24.007Z,10.35
2023-02-18T07:31:50.434Z,8.77
2023-02-18T07:34:17.062Z,9.65
2023-02-18T07:36:43.390Z,10.18
2023-02-18T07:39:09.711Z,9.50
2023-02-18T07:41:36.099Z,10.07
2023-02-18T07:44:05.435Z,9.98
2023-02-18T07:46:31.848Z,9.30
2023-02-18T07:48:58.185Z,8.52
2023-02-18T07:51:24.798Z,8.57
2023-02-18T07:53:51.363Z,8.40
2023-02-18T07:56:18.503Z,9.02
2023-02-18T07:58:44.810Z,9.25
2023-02-18T08:01:12.175Z,8.48
2023-02-18T08:03:38.616Z,7.38
2023-02-18T08:06:05.361Z,7.45
2023-02-18T08:08:34.575Z,7.85
2023-02-18T08:11:13.431Z,6.22
2023-02-18T08:13:44.276Z,5.93
2023-02-18T08:16:11.915Z,5.63
2023-02-18T08:18:38.211Z,5.55
2023-02-18T08:21:04.791Z,4.43
2023-02-18T08:23:31.226Z,5.72
2023-02-18T08:25:57.566Z,4.82
2023-02-18T08:28:24.363Z,5.05
2023-02-18T08:30:51.621Z,4.20
2023-02-18T08:33:18.731Z,3.25
2023-02-18T08:35:45.527Z,4.10
2023-02-18T08:38:11.916Z,3.85
2023-02-18T08:40:38.254Z,3.10
2023-02-18T08:43:04.776Z,3.40
2023-02-18T08:45:31.103Z,4.10
2023-02-18T08:48:17.901Z,3.67
2023-02-18T08:50:46.472Z,3.33
2023-02-18T08:53:12.797Z,3.20
2023-02-18T08:55:40.440Z,3.85
2023-02-18T08:58:06.910Z,3.45
2023-02-18T09:00:33.316Z,3.50
2023-02-18T09:03:00.037Z,3.30
2023-02-18T09:05:26.318Z,2.85
2023-02-18T09:07:52.694Z,2.88
2023-02-18T09:10:19.084Z,2.45
2023-02-18T09:12:45.400Z,2.58
2023-02-18T09:15:11.914Z,2.92
2023-02-18T09:17:38.235Z,3.03
2023-02-18T09:20:06.708Z,4.22
2023-02-18T09:22:33.257Z,3.40
2023-02-18T09:24:59.534Z,3.20
2023-02-18T09:27:25.858Z,2.85
2023-02-18T09:29:52.222Z,3.08
2023-02-18T09:32:32.412Z,3.05
2023-02-18T09:35:00.485Z,2.83
2023-02-18T09:37:26.800Z,3.60
2023-02-18T09:39:53.096Z,2.97
2023-02-18T09:42:21.039Z,3.58
2023-02-18T09:44:49.522Z,2.55
2023-02-18T09:47:26.199Z,3.15
2023-02-18T09:49:57.491Z,3.15
2023-02-18T09:52:31.888Z,3.13
2023-02-18T09:54:58.464Z,3.20
2023-02-18T09:57:37.449Z,3.50
2023-02-18T10:00:06.353Z,3.60
2023-02-18T10:02:33.233Z,3.40
2023-02-18T10:04:59.722Z,3.40
2023-02-18T10:07:28.594Z,3.33
2023-02-18T10:09:56.486Z,3.45
2023-02-18T10:12:24.659Z,4.03
2023-02-18T10:14:55.164Z,4.78
2023-02-18T10:17:26.290Z,3.75
2023-02-18T10:19:53.822Z,4.38
2023-02-18T10:22:20.677Z,3.60
2023-02-18T10:24:47.017Z,3.85
2023-02-18T10:27:18.390Z,3.22
2023-02-18T10:29:44.971Z,3.47
2023-02-18T10:32:16.800Z,3.50
2023-02-18T10:34:47.725Z,4.43
2023-02-18T10:37:23.364Z,4.18
2023-02-18T10:39:57.720Z,3.03
2023-02-18T10:42:24.052Z,3.00
2023-02-18T10:45:02.766Z,3.15
2023-02-18T10:47:38.375Z,3.47
2023-02-18T10:50:07.512Z,3.10
2023-02-18T10:52:35.904Z,3.50
2023-02-18T10:55:05.218Z,3.00
2023-02-18T10:57:31.662Z,3.42
2023-02-18T10:59:59.752Z,3.03
2023-02-18T11:02:29.818Z,3.15
2023-02-18T11:04:57.692Z,3.08
2023-02-18T11:07:31.772Z,3.33
2023-02-18T11:10:16.169Z,3.50
2023-02-18T11:12:55.538Z,3.33
2023-02-18T11:15:24.352Z,3.13
2023-02-18T11:17:52.256Z,3.45
2023-02-18T11:20:18.775Z,3.17
2023-02-18T11:22:45.162Z,2.92
2023-02-18T11:25:29.323Z,3.40
2023-02-18T11:27:57.146Z,2.83
2023-02-18T11:30:25.945Z,3.25
2023-02-18T11:33:04.180Z,2.75
2023-02-18T11:35:32.119Z,3.90
2023-02-18T11:37:59.244Z,3.30
2023-02-18T11:40:29.711Z,3.42
2023-02-18T12:00:17.034Z,3.47
2023-02-18T12:03:02.505Z,3.67
2023-02-18T12:08:31.610Z,3.63
2023-02-18T12:17:36.376Z,3.22
2023-02-18T12:20:21.658Z,3.00
2023-02-18T12:23:17.483Z,3.90
2023-02-18T12:25:47.648Z,3.10
2023-02-18T12:28:23.029Z,4.07
2023-02-18T12:31:08.089Z,3.17
2023-02-18T12:33:43.604Z,3.00
2023-02-18T12:36:28.844Z,3.25
2023-02-18T12:39:00.672Z,2.97
2023-02-18T12:41:36.021Z,2.42
2023-02-18T12:44:14.266Z,2.42
2023-02-18T12:46:40.609Z,2.80
2023-02-18T12:49:33.385Z,2.90
2023-02-18T12:52:05.885Z,3.30
2023-02-18T12:54:39.794Z,2.70
2023-02-18T12:57:29.395Z,2.30
2023-02-18T13:00:01.835Z,2.13
2023-02-18T13:02:31.359Z,2.58
2023-02-18T13:05:12.473Z,2.60
2023-02-18T13:07:57.286Z,2.30
2023-02-18T13:10:30.137Z,1.92
2023-02-18T13:13:08.135Z,2.30
2023-02-18T13:16:00.586Z,2.53
2023-02-18T13:18:39.677Z,2.50
2023-02-18T13:21:11.869Z,2.20
2023-02-18T13:23:40.142Z,2.25
2023-02-18T13:26:08.528Z,2.15
2023-02-18T13:28:47.440Z,2.22
2023-02-18T13:31:16.936Z,2.95
2023-02-18T13:33:43.343Z,2.88
2023-02-18T13:36:18.991Z,2.28
2023-02-18T13:38:57.380Z,3.03
2023-02-18T13:41:29.702Z,2.63
2023-02-18T13:43:56.063Z,2.55
2023-02-18T13:46:23.255Z,2.58
2023-02-18T13:48:52.403Z,2.88
2023-02-18T13:51:29.221Z,2.88
2023-02-18T13:53:59.651Z,2.63
2023-02-18T13:56:30.920Z,2.80
2023-02-18T13:59:15.744Z,2.83
2023-02-18T14:01:46.410Z,2.70
2023-02-18T14:04:38.708Z,2.55
2023-02-18T14:07:23.654Z,2.60
2023-02-18T14:09:50.045Z,2.95
2023-02-18T14:12:25.426Z,2.60
2023-02-18T14:14:52.319Z,2.83
2023-02-18T14:17:18.619Z,2.33
2023-02-18T14:20:11.435Z,2.83
2023-02-18T14:22:50.610Z,2.38
2023-02-18T14:25:34.562Z,2.67
2023-02-18T14:28:02.659Z,2.60
2023-02-18T14:30:33.728Z,2.20
2023-02-18T14:33:01.297Z,2.70
2023-02-18T14:35:32.378Z,2.38
2023-02-18T14:38:17.276Z,2.53
2023-02-18T14:40:58.449Z,2.63
2023-02-18T14:43:24.745Z,2.72
2023-02-18T14:45:56.873Z,2.40
2023-02-18T14:48:35.444Z,3.03
2023-02-18T14:51:01.989Z,2.50
2023-02-18T14:53:28.572Z,2.05
2023-02-18T14:55:57.967Z,2.38
2023-02-18T14:58:32.644Z,2.50
2023-02-18T15:01:05.440Z,2.65
2023-02-18T15:03:32.080Z,2.78
2023-02-18T15:05:58.372Z,2.53
2023-02-18T15:08:25.931Z,3.33
2023-02-18T15:11:01.667Z,2.60
2023-02-18T15:13:32.430Z,2.92
2023-02-18T15:18:28.092Z,2.67
2023-02-18T15:20:54.598Z,2.80
2023-02-18T15:23:20.967Z,2.80
2023-02-18T15:25:52.015Z,2.80
2023-02-18T15:28:20.850Z,3.00
2023-02-18T15:30:47.148Z,3.28
2023-02-18T15:33:14.181Z,3.08
2023-02-18T15:35:44.134Z,3.40
2023-02-18T15:38:15.112Z,3.35
2023-02-18T15:40:41.483Z,3.40
2023-02-18T15:43:07.989Z,3.50
2023-02-18T15:45:39.329Z,3.70
2023-02-18T15:48:07.284Z,3.28
2023-02-18T15:50:37.740Z,3.90
2023-02-18T15:53:06.417Z,3.67
2023-02-18T15:55:32.789Z,4.05
2023-02-18T15:58:04.521Z,4.13
2023-02-18T16:00:33.246Z,3.65
2023-02-18T16:03:05.248Z,3.72
2023-02-18T16:05:32.134Z,3.80
2023-02-18T16:08:00.469Z,4.25
2023-02-18T16:10:36.107Z,3.97
2023-02-18T16:13:06.625Z,3.67
2023-02-18T16:15:38.277Z,4.60
2023-02-18T16:18:07.224Z,3.88
2023-02-18T16:20:37.681Z,4.15
2023-02-18T16:23:10.328Z,4.05
2023-02-18T16:25:42.470Z,4.80
2023-02-18T16:28:14.175Z,4.38
2023-02-18T16:30:45.382Z,4.13
2023-02-18T16:33:12.235Z,5.25
2023-02-18T16:35:48.975Z,4.57
2023-02-18T16:38:17.665Z,4.68
2023-02-18T16:40:44.314Z,4.25
2023-02-18T16:43:12.192Z,5.10
2023-02-18T16:45:40.579Z,4.00
2023-02-18T16:48:07.992Z,4.55
2023-02-18T16:50:37.787Z,4.60
2023-02-18T16:53:04.124Z,4.30
2023-02-18T16:55:30.431Z,5.40
2023-02-18T16:57:57.036Z,5.57
2023-02-18T17:00:31.011Z,5.38
2023-02-18T17:02:58.893Z,4.88
2023-02-18T17:05:27.497Z,5.53
2023-02-18T17:07:54.895Z,5.25
2023-02-18T17:10:21.325Z,5.43
2023-02-18T17:12:47.642Z,5.43
2023-02-18T17:15:34.437Z,5.32
2023-02-18T17:18:01.782Z,4.85
2023-02-18T17:20:29.008Z,4.95
2023-02-18T17:22:58.582Z,4.90
2023-02-18T17:25:29.254Z,4.97
2023-02-18T17:27:55.569Z,5.05
2023-02-18T17:30:22.001Z,5.18
2023-02-18T17:32:49.156Z,5.82
2023-02-18T17:35:16.824Z,5.05
2023-02-18T17:37:43.256Z,5.20
2023-02-18T17:40:13.506Z,5.88
2023-02-18T17:42:39.838Z,5.32
2023-02-18T17:45:17.256Z,5.20
2023-02-18T17:47:43.839Z,6.20
2023-02-18T17:50:10.305Z,5.40
2023-02-18T17:52:36.650Z,6.35
2023-02-18T17:55:23.255Z,6.10
2023-02-18T17:57:50.249Z,7.00
2023-02-18T18:00:21.877Z,6.80
2023-02-18T18:02:48.318Z,7.55
2023-02-18T18:05:19.484Z,6.80
2023-02-18T18:07:45.840Z,6.88
2023-02-18T18:10:12.651Z,6.50
2023-02-18T18:12:39.631Z,7.15
2023-02-18T18:15:18.061Z,7.80
2023-02-18T18:17:44.371Z,7.00
2023-02-18T18:20:13.669Z,8.07
2023-02-18T18:22:40.013Z,8.23
2023-02-18T18:25:15.440Z,8.52
2023-02-18T18:27:41.726Z,9.02
2023-02-18T18:30:08.706Z,10.18
2023-02-18T18:32:35.119Z,9.30
2023-02-18T18:35:01.390Z,10.13
2023-02-18T18:37:27.678Z,10.00
2023-02-18T18:39:54.056Z,10.80
2023-02-18T18:42:20.583Z,11.07
2023-02-18T18:44:46.921Z,10.32
2023-02-18T18:47:13.685Z,12.13
2023-02-18T18:49:40.051Z,12.93
2023-02-18T18:52:06.386Z,12.07
2023-02-18T18:54:33.325Z,13.18
2023-02-18T18:56:59.670Z,13.90
2023-02-18T18:59:26.042Z,14.13
2023-02-18T19:01:52.737Z,13.50
2023-02-18T19:04:20.632Z,12.60
2023-02-18T19:06:46.991Z,13.25
2023-02-18T19:09:13.321Z,12.98
2023-02-18T19:11:39.618Z,13.25
2023-02-18T19:14:06.219Z,13.80
2023-02-18T19:16:37.228Z,10.88
2023-02-18T19:19:03.533Z,10.77
2023-02-18T19:21:29.922Z,10.75
2023-02-18T19:23:56.316Z,10.65
2023-02-18T19:26:23.263Z,11.18
2023-02-18T19:28:49.629Z,10.73
2023-02-18T19:31:16.532Z,11.35
2023-02-18T19:33:45.657Z,10.50
2023-02-18T19:36:12.222Z,10.90
2023-02-18T19:38:39.041Z,10.85
2023-02-18T19:41:15.395Z,11.13
2023-02-18T19:43:42.765Z,10.80
2023-02-18T19:46:13.395Z,10.25
2023-02-18T19:48:40.314Z,10.52
2023-02-18T19:51:07.395Z,12.27
2023-02-18T19:53:36.964Z,11.13
2023-02-18T19:56:06.269Z,11.05
2023-02-18T19:58:32.710Z,12.50
2023-02-18T20:00:59.041Z,12.32
2023-02-18T20:03:25.358Z,12.73
2023-02-18T20:05:51.673Z,13.18
2023-02-18T20:08:17.984Z,13.25
2023-02-18T20:10:44.256Z,11.85
2023-02-18T20:13:12.063Z,12.73
2023-02-18T20:15:39.559Z,11.70
2023-02-18T20:18:05.890Z,11.52
2023-02-18T20:20:32.195Z,12.38
2023-02-18T20:22:58.540Z,11.93
2023-02-18T20:25:26.444Z,12.32
2023-02-18T20:28:00.821Z,11.93
2023-02-18T20:30:28.009Z,13.02
2023-02-18T20:32:56.750Z,14.88
2023-02-18T20:35:23.251Z,15.50
2023-02-18T20:37:49.592Z,14.90
2023-02-18T20:40:16.172Z,12.80
2023-02-18T20:42:42.588Z,13.77
2023-02-18T20:45:09.341Z,14.60
2023-02-18T20:47:35.772Z,13.95
2023-02-18T20:50:02.164Z,12.07
2023-02-18T20:52:28.447Z,12.07
2023-02-18T20:54:54.800Z,10.85
2023-02-18T20:57:23.959Z,11.10
2023-02-18T20:59:50.270Z,11.23
2023-02-18T21:02:17.522Z,11.77
2023-02-18T21:04:45.066Z,16.83
2023-02-18T21:07:11.671Z,12.95
2023-02-18T21:09:38.000Z,12.02
2023-02-18T21:12:04.547Z,18.33
2023-02-18T21:14:31.358Z,13.95
2023-02-18T21:16:57.865Z,13.00
2023-02-18T21:19:24.174Z,11.63
2023-02-18T21:21:50.553Z,12.63
2023-02-18T21:24:16.921Z,9.77
2023-02-18T21:26:43.371Z,10.70
2023-02-18T21:29:09.894Z,10.05
2023-02-18T21:31:37.562Z,11.13
2023-02-18T21:34:05.360Z,13.35
2023-02-18T21:36:32.139Z,13.40
2023-02-18T21:38:59.399Z,13.35
2023-02-18T21:41:26.406Z,14.18
2023-02-18T21:43:52.974Z,13.63
2023-02-18T21:46:20.508Z,15.23
2023-02-18T21:49:05.323Z,16.33
2023-02-18T21:51:53.296Z,14.13
2023-02-18T21:54:20.817Z,13.85
2023-02-18T21:56:47.268Z,14.02
2023-02-18T21:59:13.605Z,14.15
2023-02-18T22:01:41.047Z,13.50
2023-02-18T22:04:07.457Z,14.52
2023-02-18T22:06:34.071Z,15.52
2023-02-18T22:09:01.621Z,14.57
2023-02-18T22:11:28.468Z,16.25
2023-02-18T22:13:55.042Z,15.98
2023-02-18T22:16:21.667Z,17.60
2023-02-18T22:18:47.937Z,17.90
2023-02-18T22:21:14.258Z,17.02
2023-02-18T22:23:40.644Z,17.73
2023-02-18T22:26:09.103Z,18.10
2023-02-18T22:28:35.655Z,18.42
2023-02-18T22:31:09.413Z,17.08
2023-02-18T22:33:39.076Z,16.50
2023-02-18T22:36:09.034Z,17.77
2023-02-18T22:38:36.278Z,16.53
2023-02-18T22:41:03.770Z,16.08
2023-02-18T22:43:32.402Z,15.98
2023-02-18T22:46:02.645Z,17.10
2023-02-18T22:48:30.435Z,16.27
2023-02-18T22:50:56.732Z,17.08
2023-02-18T22:53:23.038Z,15.48
2023-02-18T22:55:49.342Z,15.25
2023-02-18T22:58:15.795Z,15.80
2023-02-18T23:00:42.142Z,15.75
2023-02-18T23:03:08.488Z,16.60
2023-02-18T23:05:34.843Z,16.30
2023-02-18T23:08:01.309Z,15.15
2023-02-18T23:10:27.665Z,14.85
2023-02-18T23:12:55.326Z,15.20
2023-02-18T23:15:21.695Z,14.77
2023-02-18T23:17:49.259Z,15.32
2023-02-18T23:20:15.671Z,15.45
2023-02-18T23:22:42.022Z,15.30
2023-02-18T23:25:08.330Z,15.73
2023-02-18T23:27:34.747Z,13.80
2023-02-18T23:30:01.128Z,15.15
2023-02-18T23:32:28.855Z,14.43
2023-02-18T23:34:55.146Z,15.75
2023-02-18T23:37:43.742Z,14.82
2023-02-18T23:40:10.988Z,15.48
2023-02-18T23:42:37.391Z,14.63
2023-02-18T23:45:03.840Z,12.88
2023-02-18T23:47:30.152Z,13.60
2023-02-18T23:49:58.898Z,13.10
2023-02-18T23:52:25.299Z,13.20
2023-02-18T23:54:51.693Z,12.80
2023-02-18T23:57:18.004Z,12.88
2023-02-18T23:59:44.458Z,11.85
